Time;durP1;ratioP1;P1;durP2;ratioP2;P2;SDS_P1;SDS_P2;PMS_P1;PMS_P2;Temp;Humidity;BMP_temperature;BMP_pressure;BME280_temperature;BME280_humidity;BME280_pressure;Samples;Min_cycle;Max_cycle;Signal;HPM_P1;HPM_P2
2023/10/29 00:01:42;;;;;;;10.20;7.70;;;;;;;6.04;100.00;96990.56;110279;1239;60091;-69
2023/10/29 00:04:14;;;;;;;11.50;7.80;;;;;;;6.03;100.00;96991.35;110222;1241;59694;-69
2023/10/29 00:06:47;;;;;;;8.60;6.90;;;;;;;6.03;100.00;96988.40;110335;1241;71509;-69
2023/10/29 00:09:20;;;;;;;8.20;6.70;;;;;;;6.00;100.00;96989.27;110230;1239;68590;-69
2023/10/29 00:11:54;;;;;;;10.80;7.30;;;;;;;5.97;100.00;96986.86;110233;1240;68755;-69
2023/10/29 00:14:30;;;;;;;7.90;6.60;;;;;;;5.95;100.00;96988.89;110190;1241;59790;-69
2023/10/29 00:17:02;;;;;;;8.80;6.20;;;;;;;5.94;100.00;96995.20;110190;1242;59678;-69
2023/10/29 00:19:33;;;;;;;10.60;7.50;;;;;;;5.91;100.00;96995.86;110246;1241;70572;-68
2023/10/29 00:22:05;;;;;;;10.70;7.70;;;;;;;5.89;100.00;96996.66;110273;1241;69303;-69
2023/10/29 00:24:35;;;;;;;9.30;6.40;;;;;;;5.88;100.00;96995.14;110249;1241;68412;-69
2023/10/29 00:27:06;;;;;;;9.00;6.20;;;;;;;5.87;100.00;96993.16;110232;1241;59687;-69
2023/10/29 00:29:41;;;;;;;9.80;7.90;;;;;;;5.87;100.00;96992.11;110301;1241;59646;-68
2023/10/29 00:32:18;;;;;;;10.90;7.50;;;;;;;5.88;100.00;96991.34;110193;1242;71716;-69
2023/10/29 00:34:51;;;;;;;9.50;7.20;;;;;;;5.89;100.00;96992.84;110375;1241;69358;-69
2023/10/29 00:37:25;;;;;;;10.60;7.30;;;;;;;5.89;100.00;96989.36;110165;1242;69221;-69
2023/10/29 00:40:04;;;;;;;6.00;5.30;;;;;;;5.88;100.00;96989.60;110212;1242;59699;-69
2023/10/29 00:42:39;;;;;;;7.80;5.60;;;;;;;5.87;100.00;96994.52;110356;1240;59750;-69
2023/10/29 00:45:11;;;;;;;7.70;5.60;;;;;;;5.83;100.00;96997.17;110263;1241;70628;-70
2023/10/29 00:47:44;;;;;;;7.70;5.40;;;;;;;5.80;100.00;96997.73;110292;1241;69200;-69
2023/10/29 00:50:17;;;;;;;7.10;5.20;;;;;;;5.76;100.00;97002.08;110267;1241;69325;-70
2023/10/29 00:52:51;;;;;;;8.70;6.00;;;;;;;5.75;100.00;97004.98;110420;1241;59699;-69
2023/10/29 00:55:21;;;;;;;7.60;5.40;;;;;;;5.71;100.00;97007.58;110431;1241;59662;-69
2023/10/29 00:57:54;;;;;;;8.20;5.20;;;;;;;5.68;100.00;97010.00;110365;1239;71405;-69
2023/10/29 01:00:24;;;;;;;7.70;5.10;;;;;;;5.66;100.00;97004.98;110395;1241;69193;-69
2023/10/29 01:02:55;;;;;;;8.60;6.30;;;;;;;5.62;100.00;97015.67;110247;1241;69665;-69
2023/10/29 01:05:27;;;;;;;6.20;5.00;;;;;;;5.60;100.00;97015.30;110265;1241;59663;-70
2023/10/29 01:07:58;;;;;;;8.70;6.00;;;;;;;5.57;100.00;97017.23;110388;1241;59722;-70
2023/10/29 01:10:32;;;;;;;10.50;7.10;;;;;;;5.53;100.00;97020.56;110357;1241;70952;-70
2023/10/29 01:13:04;;;;;;;9.50;6.00;;;;;;;5.50;100.00;97025.95;110355;1240;68554;-69
2023/10/29 01:15:35;;;;;;;9.30;6.50;;;;;;;5.46;100.00;97027.19;110288;1242;68344;-69
2023/10/29 01:18:09;;;;;;;8.70;6.60;;;;;;;5.45;100.00;97030.73;110290;1241;59688;-69
2023/10/29 01:20:42;;;;;;;7.40;5.80;;;;;;;5.45;100.00;97030.39;110177;1243;59704;-70
2023/10/29 01:23:13;;;;;;;7.60;5.40;;;;;;;5.46;100.00;97033.41;110245;1241;71396;-70
2023/10/29 01:25:44;;;;;;;8.30;6.00;;;;;;;5.48;100.00;97034.15;110339;1241;69069;-69
2023/10/29 01:28:20;;;;;;;7.10;5.10;;;;;;;5.47;100.00;97039.45;110277;1241;69751;-70
2023/10/29 01:30:51;;;;;;;9.20;6.20;;;;;;;5.46;100.00;97034.66;110297;1240;59643;-69
2023/10/29 01:33:22;;;;;;;8.90;7.00;;;;;;;5.44;100.00;97032.70;110286;1241;59638;-69
2023/10/29 01:35:58;;;;;;;8.40;6.30;;;;;;;5.40;100.00;97026.52;110277;1240;71748;-70
2023/10/29 01:38:29;;;;;;;8.10;5.90;;;;;;;5.36;100.00;97020.52;110281;1241;69323;-69
2023/10/29 01:41:04;;;;;;;8.40;6.10;;;;;;;5.32;100.00;97022.67;110384;1241;68543;-70
2023/10/29 01:43:37;;;;;;;7.40;6.20;;;;;;;5.27;100.00;97024.66;110399;1241;59721;-70
2023/10/29 01:46:10;;;;;;;9.60;6.10;;;;;;;5.20;100.00;97024.76;110274;1240;59762;-70
2023/10/29 01:48:44;;;;;;;7.20;5.80;;;;;;;5.13;100.00;97030.34;110295;1241;71424;-69
2023/10/29 01:51:18;;;;;;;8.60;5.70;;;;;;;5.05;100.00;97039.40;110314;1241;69221;-69
2023/10/29 01:53:53;;;;;;;7.20;5.80;;;;;;;5.00;100.00;97046.95;110183;1244;69299;-69
2023/10/29 01:56:26;;;;;;;6.90;5.70;;;;;;;4.94;100.00;97053.83;110209;1239;59746;-69
2023/10/29 01:59:01;;;;;;;7.30;5.50;;;;;;;4.91;100.00;97059.40;110314;1241;59658;-69
2023/10/29 02:01:33;;;;;;;7.90;5.30;;;;;;;4.91;100.00;97061.81;110244;1244;70651;-69
2023/10/29 02:04:12;;;;;;;5.70;4.60;;;;;;;4.92;100.00;97061.56;110289;1240;67783;-70
2023/10/29 02:06:43;;;;;;;5.20;3.60;;;;;;;4.94;100.00;97061.65;110298;1241;69329;-70
2023/10/29 02:09:15;;;;;;;5.60;4.10;;;;;;;4.92;100.00;97065.91;110268;1241;59627;-69
2023/10/29 02:11:46;;;;;;;5.60;3.90;;;;;;;4.90;100.00;97068.44;110298;1241;59690;-69
2023/10/29 02:14:20;;;;;;;7.80;6.00;;;;;;;4.87;100.00;97067.05;110186;1242;70672;-69
2023/10/29 02:16:51;;;;;;;6.40;4.30;;;;;;;4.86;100.00;97068.27;110261;1241;69323;-69
2023/10/29 02:19:25;;;;;;;7.80;5.50;;;;;;;4.87;100.00;97069.13;110242;1241;69224;-69
2023/10/29 02:21:57;;;;;;;4.80;4.00;;;;;;;4.80;100.00;97066.02;110183;1243;59734;-69
2023/10/29 02:24:27;;;;;;;6.70;4.50;;;;;;;4.73;100.00;97068.98;110278;1241;59663;-69
2023/10/29 02:27:01;;;;;;;7.70;4.60;;;;;;;4.66;100.00;97078.04;110309;1242;71516;-69
2023/10/29 02:29:36;;;;;;;5.80;4.10;;;;;;;4.59;100.00;97076.34;110261;1241;69246;-69
2023/10/29 02:32:08;;;;;;;6.20;4.50;;;;;;;4.54;100.00;97076.25;110164;1243;69280;-69
2023/10/29 02:34:41;;;;;;;8.10;4.30;;;;;;;4.51;100.00;97078.44;110280;1241;59709;-69
2023/10/29 02:37:13;;;;;;;4.00;3.50;;;;;;;4.51;100.00;97083.13;110306;1241;59647;-69
2023/10/29 02:39:45;;;;;;;5.10;3.70;;;;;;;4.53;100.00;97087.88;110302;1241;71376;-69
2023/10/29 02:42:19;;;;;;;5.10;3.50;;;;;;;4.53;100.00;97093.03;110248;1240;68461;-69
2023/10/29 02:44:55;;;;;;;4.30;3.50;;;;;;;4.56;100.00;97098.88;110321;1239;68436;-69
2023/10/29 02:47:26;;;;;;;4.30;3.90;;;;;;;4.63;100.00;97099.27;110393;1242;59703;-69
2023/10/29 02:49:58;;;;;;;4.80;3.60;;;;;;;4.65;100.00;97094.11;110394;1241;59621;-69
2023/10/29 02:52:29;;;;;;;5.00;4.10;;;;;;;4.67;100.00;97091.60;110291;1244;70941;-69
2023/10/29 02:55:04;;;;;;;5.40;4.40;;;;;;;4.70;100.00;97091.25;110375;1244;68485;-70
2023/10/29 02:57:35;;;;;;;5.40;3.50;;;;;;;4.71;100.00;97095.52;110440;1241;69196;-69
2023/10/29 03:00:09;;;;;;;5.80;4.50;;;;;;;4.70;100.00;97093.87;110387;1241;59687;-69
2023/10/29 03:02:42;;;;;;;4.90;3.80;;;;;;;4.68;100.00;97093.79;110401;1240;59670;-70
2023/10/29 03:05:21;;;;;;;15.90;8.60;;;;;;;4.67;100.00;97097.98;110341;1248;70824;-70
2023/10/29 03:07:54;;;;;;;6.50;4.60;;;;;;;4.65;100.00;97100.15;110404;1239;69094;-69
2023/10/29 03:10:27;;;;;;;5.20;3.70;;;;;;;4.63;100.00;97106.16;110321;1241;69214;-69
2023/10/29 03:13:00;;;;;;;5.50;3.40;;;;;;;4.60;100.00;97108.52;110265;1240;59750;-70
2023/10/29 03:15:33;;;;;;;5.00;4.00;;;;;;;4.59;100.00;97109.11;110311;1241;59791;-70
2023/10/29 03:18:05;;;;;;;5.40;4.00;;;;;;;4.59;100.00;97107.71;110281;1241;69599;-71
2023/10/29 03:20:38;;;;;;;5.50;4.40;;;;;;;4.60;100.00;97106.42;110263;1241;68276;-69
2023/10/29 03:23:11;;;;;;;4.90;4.00;;;;;;;4.61;100.00;97113.13;110377;1241;69294;-69
2023/10/29 03:25:44;;;;;;;5.40;3.50;;;;;;;4.60;100.00;97119.77;110338;1239;59723;-69
2023/10/29 03:28:23;;;;;;;6.20;4.30;;;;;;;4.53;100.00;97121.70;110318;1241;59687;-69
2023/10/29 03:31:02;;;;;;;5.50;3.60;;;;;;;4.48;100.00;97119.68;110292;1241;71204;-69
2023/10/29 03:33:33;;;;;;;5.20;4.00;;;;;;;4.47;100.00;97120.81;110312;1241;69060;-69
2023/10/29 03:36:04;;;;;;;;;;;;;;;4.44;100.00;97126.10;110286;1241;68714;-69
2023/10/29 03:38:36;;;;;;;6.10;3.30;;;;;;;4.42;100.00;97130.76;110311;1240;59737;-69
2023/10/29 03:41:22;;;;;;;4.50;3.60;;;;;;;4.40;100.00;97136.89;110276;1241;59686;-69
2023/10/29 03:43:57;;;;;;;4.10;2.80;;;;;;;4.39;100.00;97132.80;110447;1241;70881;-69
2023/10/29 03:46:33;;;;;;;3.40;2.80;;;;;;;4.37;100.00;97135.66;110236;1241;69613;-69
2023/10/29 03:49:07;;;;;;;4.40;2.90;;;;;;;4.37;100.00;97134.98;110252;1240;69214;-69
2023/10/29 03:51:45;;;;;;;3.90;2.60;;;;;;;4.36;100.00;97141.73;110288;1239;59742;-69
2023/10/29 03:54:20;;;;;;;3.80;2.90;;;;;;;4.35;100.00;97150.77;110265;1241;59627;-69
2023/10/29 03:56:54;;;;;;;3.80;2.40;;;;;;;4.32;100.00;97152.77;110269;1241;71429;-69
2023/10/29 03:59:28;;;;;;;4.10;2.40;;;;;;;4.33;100.00;97153.43;110310;1240;68619;-69
2023/10/29 04:01:59;;;;;;;3.70;3.00;;;;;;;4.37;100.00;97159.98;110252;1241;68502;-69
2023/10/29 04:04:29;;;;;;;3.50;2.80;;;;;;;4.37;100.00;97169.95;110249;1241;59678;-69
2023/10/29 04:07:01;;;;;;;3.20;2.30;;;;;;;4.36;100.00;97176.91;110283;1241;59676;-69
2023/10/29 04:09:33;;;;;;;4.80;3.10;;;;;;;4.34;100.00;97172.54;110309;1241;70706;-69
2023/10/29 04:12:05;;;;;;;3.80;2.60;;;;;;;4.34;100.00;97170.66;110274;1241;68578;-69
2023/10/29 04:14:38;;;;;;;4.00;2.70;;;;;;;4.33;100.00;97179.34;110291;1244;68567;-70
2023/10/29 04:17:09;;;;;;;3.80;3.00;;;;;;;4.33;100.00;97184.87;110292;1241;59665;-70
2023/10/29 04:19:43;;;;;;;3.00;2.40;;;;;;;4.33;100.00;97186.59;110267;1239;60072;-69
2023/10/29 04:22:13;;;;;;;4.50;3.60;;;;;;;4.35;100.00;97188.36;110296;1241;70687;-69
2023/10/29 04:24:43;;;;;;;4.40;3.40;;;;;;;4.37;100.00;97193.46;110306;1241;70064;-69
2023/10/29 04:27:15;;;;;;;4.90;3.90;;;;;;;4.37;100.00;97196.23;110376;1241;69261;-70
2023/10/29 04:29:49;;;;;;;4.00;3.40;;;;;;;4.38;100.00;97200.33;110267;1239;59719;-69
2023/10/29 04:32:18;;;;;;;4.70;3.40;;;;;;;4.38;100.00;97204.77;110286;1241;59738;-69
2023/10/29 04:34:48;;;;;;;5.10;3.80;;;;;;;4.37;100.00;97210.02;110266;1241;71361;-69
2023/10/29 04:37:19;;;;;;;4.90;3.50;;;;;;;4.34;100.00;97209.29;110303;1240;69216;-69
2023/10/29 04:39:50;;;;;;;4.10;3.50;;;;;;;4.31;100.00;97212.23;110252;1240;67761;-69
2023/10/29 04:42:22;;;;;;;6.20;4.10;;;;;;;4.26;100.00;97206.77;110253;1246;59652;-69
2023/10/29 04:44:53;;;;;;;4.00;3.30;;;;;;;4.24;100.00;97203.92;110308;1241;59626;-69
2023/10/29 04:47:24;;;;;;;5.20;3.20;;;;;;;4.23;100.00;97208.98;110255;1247;70479;-69
2023/10/29 04:49:53;;;;;;;3.70;2.90;;;;;;;4.21;100.00;97200.84;110224;1241;68501;-69
2023/10/29 04:52:25;;;;;;;3.90;3.30;;;;;;;4.19;100.00;97198.17;110227;1241;69482;-69
2023/10/29 04:54:55;;;;;;;4.30;3.20;;;;;;;4.18;100.00;97201.00;110278;1241;59643;-69
2023/10/29 04:57:25;;;;;;;4.00;2.90;;;;;;;4.17;100.00;97206.37;110279;1241;59627;-70
2023/10/29 04:59:58;;;;;;;4.10;3.30;;;;;;;4.15;100.00;97215.25;110285;1241;72055;-70
2023/10/29 05:02:29;;;;;;;5.70;3.40;;;;;;;4.13;100.00;97221.96;110248;1241;68485;-70
2023/10/29 05:04:59;;;;;;;4.40;3.10;;;;;;;4.11;100.00;97224.78;110259;1239;69130;-70
2023/10/29 05:07:29;;;;;;;3.50;2.80;;;;;;;4.12;100.00;97225.92;110251;1241;59770;-70
2023/10/29 05:09:59;;;;;;;5.30;3.40;;;;;;;4.15;100.00;97227.69;110243;1240;59683;-68
2023/10/29 05:12:31;;;;;;;4.90;3.70;;;;;;;4.16;100.00;97233.35;110234;1239;71831;-70
2023/10/29 05:15:01;;;;;;;;;;;;;;;4.06;100.00;97236.38;110247;1239;68523;-70
2023/10/29 05:17:30;;;;;;;4.80;3.10;;;;;;;4.02;100.00;97240.07;110393;1241;69156;-70
2023/10/29 05:20:03;;;;;;;4.40;3.40;;;;;;;4.01;100.00;97240.09;110251;1241;59741;-71
2023/10/29 05:22:32;;;;;;;6.20;2.90;;;;;;;4.05;100.00;97240.27;110291;1241;59685;-69
2023/10/29 05:25:02;;;;;;;4.70;3.20;;;;;;;4.15;100.00;97242.52;110285;1241;72119;-69
2023/10/29 05:27:31;;;;;;;5.30;3.60;;;;;;;4.27;100.00;97246.94;110168;1240;68856;-69
2023/10/29 05:30:01;;;;;;;4.80;3.90;;;;;;;4.32;100.00;97254.23;110186;1242;69186;-69
2023/10/29 05:32:32;;;;;;;5.10;3.60;;;;;;;4.38;100.00;97260.86;110354;1239;59775;-69
2023/10/29 05:35:02;;;;;;;5.60;3.10;;;;;;;4.43;100.00;97256.13;110328;1240;59674;-68
2023/10/29 05:37:34;;;;;;;4.10;3.40;;;;;;;4.51;100.00;97258.14;110339;1241;71986;-70
2023/10/29 05:40:07;;;;;;;4.90;3.60;;;;;;;4.67;100.00;97265.95;110345;1239;68820;-70
2023/10/29 05:42:36;;;;;;;5.50;4.10;;;;;;;4.80;100.00;97273.19;110261;1241;69900;-70
2023/10/29 05:45:06;;;;;;;4.80;3.60;;;;;;;4.84;100.00;97273.86;110326;1241;60107;-69
2023/10/29 05:47:36;;;;;;;4.20;3.50;;;;;;;4.90;100.00;97275.46;110355;1242;59665;-70
2023/10/29 05:50:06;;;;;;;5.50;4.50;;;;;;;5.01;100.00;97281.42;110368;1241;71913;-70
2023/10/29 05:52:35;;;;;;;7.30;5.30;;;;;;;5.14;100.00;97278.84;110302;1241;69782;-70
2023/10/29 05:55:05;;;;;;;5.90;4.50;;;;;;;5.28;100.00;97281.39;110266;1241;69287;-72
2023/10/29 05:57:34;;;;;;;5.40;4.20;;;;;;;5.42;100.00;97273.90;110325;1242;59727;-70
2023/10/29 06:00:05;;;;;;;6.40;5.50;;;;;;;5.55;100.00;97265.89;110314;1241;59641;-69
2023/10/29 06:02:40;;;;;;;8.10;6.60;;;;;;;5.70;100.00;97262.31;110288;1241;70692;-71
2023/10/29 06:05:09;;;;;;;10.10;8.40;;;;;;;5.81;100.00;97252.37;110411;1241;69077;-71
2023/10/29 06:07:43;;;;;;;10.20;7.30;;;;;;;5.90;100.00;97251.35;110275;1241;69276;-71
2023/10/29 06:10:15;;;;;;;7.80;6.60;;;;;;;5.96;100.00;97261.95;110169;1244;59663;-71
2023/10/29 06:12:45;;;;;;;6.50;5.30;;;;;;;6.01;100.00;97275.31;110441;1241;59672;-69
2023/10/29 06:15:15;;;;;;;6.90;5.20;;;;;;;6.05;100.00;97279.05;110300;1241;70843;-70
2023/10/29 06:17:45;;;;;;;4.60;4.10;;;;;;;6.19;100.00;97284.33;110486;1241;69283;-70
2023/10/29 06:20:17;;;;;;;7.80;4.70;;;;;;;6.47;100.00;97292.23;110436;1241;68928;-70
2023/10/29 06:22:52;;;;;;;5.90;5.00;;;;;;;6.90;100.00;97300.09;110276;1243;59716;-68
2023/10/29 06:25:21;;;;;;;8.00;6.10;;;;;;;7.38;100.00;97310.34;110227;1241;59686;-69
2023/10/29 06:27:51;;;;;;;13.20;10.40;;;;;;;7.80;100.00;97314.52;110314;1241;71998;-71
2023/10/29 06:30:21;;;;;;;12.10;9.60;;;;;;;8.24;100.00;97312.23;110234;1241;69562;-70
2023/10/29 06:32:52;;;;;;;10.50;8.30;;;;;;;8.54;100.00;97317.54;110278;1241;69873;-70
2023/10/29 06:35:22;;;;;;;8.90;6.90;;;;;;;8.63;100.00;97323.06;110296;1240;59733;-70
2023/10/29 06:37:52;;;;;;;7.50;6.30;;;;;;;8.98;100.00;97327.50;110300;1241;59672;-71
2023/10/29 06:40:21;;;;;;;5.80;5.00;;;;;;;9.24;100.00;97334.60;110392;1243;72029;-69
2023/10/29 06:42:50;;;;;;;6.60;4.10;;;;;;;9.63;100.00;97334.15;110380;1241;69764;-71
2023/10/29 06:45:19;;;;;;;4.80;3.80;;;;;;;10.24;99.24;97323.20;110321;1241;69207;-72
2023/10/29 06:47:50;;;;;;;4.70;3.70;;;;;;;10.91;96.71;97322.95;110331;1241;59708;-71
2023/10/29 06:50:20;;;;;;;4.70;3.90;;;;;;;11.62;94.25;97318.67;110401;1241;59692;-70
2023/10/29 06:52:49;;;;;;;5.60;4.20;;;;;;;12.19;92.46;97322.20;110241;1241;69614;-72
2023/10/29 06:55:22;;;;;;;4.60;4.10;;;;;;;12.60;90.17;97322.48;110287;1241;70224;-71
2023/10/29 06:57:51;;;;;;;5.80;3.40;;;;;;;12.94;88.94;97324.76;110430;1240;69290;-71
2023/10/29 07:00:21;;;;;;;3.80;3.10;;;;;;;13.26;90.43;97325.92;110350;1243;59691;-70
2023/10/29 07:02:50;;;;;;;4.20;2.80;;;;;;;13.44;90.24;97323.41;110344;1240;59741;-69
2023/10/29 07:05:20;;;;;;;3.70;3.30;;;;;;;13.45;89.13;97324.89;110254;1241;71836;-72
2023/10/29 07:07:52;;;;;;;4.90;2.90;;;;;;;13.41;89.51;97329.94;110278;1241;68273;-70
2023/10/29 07:10:21;;;;;;;5.40;3.90;;;;;;;13.38;91.64;97334.21;110236;1241;68345;-70
2023/10/29 07:12:52;;;;;;;4.60;3.80;;;;;;;13.22;91.99;97342.26;110293;1240;59690;-71
2023/10/29 07:15:22;;;;;;;4.70;3.70;;;;;;;13.19;92.53;97343.35;110393;1241;59662;-71
2023/10/29 07:17:51;;;;;;;4.60;4.10;;;;;;;12.99;92.80;97344.64;110273;1241;71410;-70
2023/10/29 07:20:21;;;;;;;;;;;;;;;12.98;93.21;97348.06;110422;1241;68670;-71
2023/10/29 07:22:49;;;;;;;5.20;4.60;;;;;;;12.88;94.24;97351.67;110357;1241;69369;-70
2023/10/29 07:25:18;;;;;;;6.60;5.90;;;;;;;12.70;93.20;97350.71;110227;1241;59689;-71
2023/10/29 07:27:47;;;;;;;10.30;7.00;;;;;;;12.39;92.70;97351.85;110312;1241;59694;-68
2023/10/29 07:30:17;;;;;;;8.10;6.00;;;;;;;12.13;93.60;97351.99;110292;1241;70954;-69
2023/10/29 07:32:46;;;;;;;6.00;4.70;;;;;;;11.88;94.56;97352.46;110298;1241;70147;-70
2023/10/29 07:35:16;;;;;;;6.20;5.00;;;;;;;11.74;95.41;97348.63;110283;1242;69297;-70
2023/10/29 07:37:45;;;;;;;5.40;4.60;;;;;;;11.68;96.85;97353.45;110388;1241;59726;-71
2023/10/29 07:40:16;;;;;;;5.80;4.60;;;;;;;11.60;99.73;97355.33;110353;1241;59630;-70
2023/10/29 07:42:45;;;;;;;4.90;4.20;;;;;;;11.61;99.86;97357.55;110238;1241;71421;-69
2023/10/29 07:45:14;;;;;;;4.20;3.70;;;;;;;11.66;100.00;97353.61;110265;1241;68183;-69
2023/10/29 07:47:43;;;;;;;4.30;3.60;;;;;;;11.81;100.00;97353.34;110283;1241;69886;-70
2023/10/29 07:50:13;;;;;;;6.60;3.50;;;;;;;11.96;100.00;97350.79;110294;1239;59691;-70
2023/10/29 07:52:42;;;;;;;5.90;3.30;;;;;;;12.09;100.00;97352.54;110310;1241;60014;-70
2023/10/29 07:55:11;;;;;;;5.30;4.00;;;;;;;12.23;100.00;97352.80;110155;1245;71813;-70
2023/10/29 07:57:40;;;;;;;4.90;3.30;;;;;;;12.37;100.00;97348.86;110283;1240;67513;-70
2023/10/29 08:00:13;;;;;;;4.80;3.20;;;;;;;12.52;100.00;97351.35;110242;1242;69170;-69
2023/10/29 08:02:43;;;;;;;4.20;2.90;;;;;;;12.70;100.00;97353.19;110299;1241;59735;-68
2023/10/29 08:05:16;;;;;;;3.60;2.80;;;;;;;12.86;99.75;97355.85;110246;1241;59692;-70
2023/10/29 08:07:45;;;;;;;4.00;2.60;;;;;;;13.03;98.19;97363.73;110294;1240;70652;-71
2023/10/29 08:10:14;;;;;;;3.10;2.60;;;;;;;13.19;98.09;97364.86;110208;1242;69205;-70
2023/10/29 08:12:43;;;;;;;4.50;2.50;;;;;;;13.38;96.14;97366.44;110364;1241;69480;-71
2023/10/29 08:15:12;;;;;;;3.80;2.70;;;;;;;13.53;93.77;97364.21;110340;1241;59700;-70
2023/10/29 08:17:42;;;;;;;3.30;2.20;;;;;;;13.77;94.42;97364.12;110359;1241;59740;-70
2023/10/29 08:20:11;;;;;;;3.40;2.40;;;;;;;14.12;95.96;97365.48;110261;1241;71939;-70
2023/10/29 08:22:42;;;;;;;3.90;2.30;;;;;;;14.73;93.24;97363.50;110294;1241;69586;-70
2023/10/29 08:25:14;;;;;;;3.90;2.20;;;;;;;15.28;84.35;97360.27;110289;1241;69275;-71
2023/10/29 08:27:44;;;;;;;4.10;2.40;;;;;;;15.75;85.61;97361.17;110415;1241;59725;-72
2023/10/29 08:30:13;;;;;;;5.10;2.70;;;;;;;16.03;84.09;97360.21;110379;1240;59737;-73
2023/10/29 08:32:42;;;;;;;3.70;2.20;;;;;;;16.28;79.42;97359.21;110352;1241;71380;-71
2023/10/29 08:35:11;;;;;;;3.10;2.20;;;;;;;17.16;85.52;97363.80;110241;1241;69140;-70
2023/10/29 08:37:40;;;;;;;5.90;2.40;;;;;;;17.95;74.60;97365.44;110330;1239;68523;-71
2023/10/29 08:40:15;;;;;;;3.90;2.70;;;;;;;18.94;76.92;97367.31;110372;1239;59702;-72
2023/10/29 08:42:44;;;;;;;3.40;2.30;;;;;;;19.92;76.04;97366.18;110393;1241;59737;-71
2023/10/29 08:45:14;;;;;;;2.90;2.20;;;;;;;20.73;72.99;97357.90;110365;1242;71424;-72
2023/10/29 08:47:58;;;;;;;3.40;2.30;;;;;;;21.43;64.48;97364.45;110357;1241;69375;-70
2023/10/29 08:50:30;;;;;;;2.80;2.10;;;;;;;22.03;61.02;97365.30;110377;1241;69271;-71
2023/10/29 08:53:02;;;;;;;3.60;2.00;;;;;;;22.34;56.46;97366.68;110372;1242;59722;-71
2023/10/29 08:55:34;;;;;;;6.20;2.30;;;;;;;22.79;56.07;97360.18;110390;1240;59743;-70
2023/10/29 08:58:06;;;;;;;4.10;2.20;;;;;;;22.97;51.64;97361.94;110394;1241;70625;-70
2023/10/29 09:00:36;;;;;;;4.00;2.20;;;;;;;22.94;51.18;97366.41;110279;1244;69235;-70
2023/10/29 09:03:14;;;;;;;4.10;2.20;;;;;;;23.29;50.66;97364.71;110246;1239;69150;-70
2023/10/29 09:05:46;;;;;;;4.10;2.10;;;;;;;23.57;50.13;97367.83;110399;1240;59740;-71
2023/10/29 09:08:15;;;;;;;3.30;1.50;;;;;;;23.76;48.82;97371.36;110421;1241;59653;-71
2023/10/29 09:10:45;;;;;;;3.20;1.90;;;;;;;24.06;48.00;97371.70;110352;1241;71384;-71
2023/10/29 09:13:18;;;;;;;3.10;1.70;;;;;;;24.03;46.58;97373.08;110340;1241;69212;-72
2023/10/29 09:15:49;;;;;;;5.00;1.70;;;;;;;24.14;47.06;97375.20;110394;1240;69272;-72
2023/10/29 09:18:19;;;;;;;3.40;1.70;;;;;;;24.49;46.03;97372.89;110371;1241;59694;-71
2023/10/29 09:20:49;;;;;;;2.60;1.60;;;;;;;24.86;45.94;97371.56;109920;1241;595174;-71
2023/10/29 09:23:19;;;;;;;3.30;1.70;;;;;;;24.99;43.67;97367.80;110388;1244;71245;-72
2023/10/29 09:25:49;;;;;;;3.00;1.70;;;;;;;25.03;43.24;97369.44;110379;1241;69242;-72
2023/10/29 09:28:20;;;;;;;3.00;1.80;;;;;;;25.39;45.30;97364.30;110346;1241;69268;-73
2023/10/29 09:30:51;;;;;;;3.10;1.60;;;;;;;25.84;42.83;97363.16;110367;1241;59701;-71
2023/10/29 09:33:23;;;;;;;3.10;1.60;;;;;;;26.10;41.98;97362.80;110382;1240;59664;-73
2023/10/29 09:35:55;;;;;;;4.90;1.40;;;;;;;26.26;41.36;97360.11;110416;1241;70780;-72
2023/10/29 09:38:30;;;;;;;3.80;1.60;;;;;;;26.42;40.33;97360.30;110367;1241;69797;-71
2023/10/29 09:40:59;;;;;;;;;;;;;;;26.62;40.51;97359.92;110386;1241;69862;-72
2023/10/29 09:43:46;;;;;;;3.30;1.50;;;;;;;26.96;39.55;97360.02;110354;1241;60151;-72
2023/10/29 09:46:16;;;;;;;3.20;1.20;;;;;;;27.12;39.66;97350.75;110413;1241;59720;-72
2023/10/29 09:48:47;;;;;;;3.00;1.50;;;;;;;27.35;39.22;97346.89;110380;1242;70809;-71
2023/10/29 09:51:16;;;;;;;3.10;1.60;;;;;;;27.17;37.80;97348.28;110385;1240;68488;-71
2023/10/29 09:53:46;;;;;;;2.90;1.50;;;;;;;27.45;39.20;97348.60;110381;1245;69154;-71
2023/10/29 09:56:16;;;;;;;2.30;1.30;;;;;;;27.86;38.38;97346.71;110343;1241;59669;-72
2023/10/29 09:58:44;;;;;;;2.20;1.40;;;;;;;28.19;38.40;97346.41;110361;1241;59674;-72
2023/10/29 10:01:14;;;;;;;3.30;1.50;;;;;;;28.60;37.05;97342.84;110357;1241;71369;-71
2023/10/29 10:03:45;;;;;;;3.60;1.60;;;;;;;28.67;36.11;97342.58;110269;1241;68890;-70
2023/10/29 10:06:15;;;;;;;3.00;1.40;;;;;;;28.91;36.84;97337.24;110431;1241;69277;-71
2023/10/29 10:08:55;;;;;;;2.80;1.70;;;;;;;29.22;35.58;97333.91;110366;1241;59697;-71
2023/10/29 10:11:26;;;;;;;4.40;1.80;;;;;;;28.91;33.83;97329.19;110406;1241;59740;-71
2023/10/29 10:13:55;;;;;;;4.50;1.90;;;;;;;27.69;35.04;97332.64;110392;1241;69848;-71
2023/10/29 10:16:25;;;;;;;3.30;1.80;;;;;;;28.11;34.92;97331.29;110419;1241;68501;-72
2023/10/29 10:18:57;;;;;;;6.50;1.70;;;;;;;27.96;34.74;97334.98;110419;1241;68707;-70
2023/10/29 10:21:43;;;;;;;3.10;1.50;;;;;;;27.71;35.76;97338.95;110453;1241;59727;-70
2023/10/29 10:24:13;;;;;;;4.00;1.70;;;;;;;27.96;34.96;97339.73;110391;1240;59726;-71
2023/10/29 10:26:42;;;;;;;3.10;1.60;;;;;;;28.15;34.85;97338.25;110376;1241;70622;-71
2023/10/29 10:29:13;;;;;;;2.80;1.50;;;;;;;28.22;34.36;97334.61;110330;1241;69810;-71
2023/10/29 10:31:42;;;;;;;;;;;;;;;27.92;34.81;97334.38;110383;1242;69307;-70
2023/10/29 10:34:12;;;;;;;3.00;1.70;;;;;;;28.24;34.87;97334.77;110322;1239;59696;-71
2023/10/29 10:36:49;;;;;;;3.00;1.40;;;;;;;28.42;33.57;97329.23;110424;1241;59674;-72
2023/10/29 10:39:25;;;;;;;3.80;1.40;;;;;;;28.44;33.55;97324.70;110384;1239;71363;-71
2023/10/29 10:41:55;;;;;;;2.20;1.20;;;;;;;28.21;33.29;97317.19;110432;1239;67673;-70
2023/10/29 10:44:30;;;;;;;3.20;1.10;;;;;;;28.43;33.92;97316.30;110187;1242;69877;-71
2023/10/29 10:47:03;;;;;;;3.10;1.30;;;;;;;29.10;33.65;97315.41;110432;1241;60055;-71
2023/10/29 10:49:34;;;;;;;3.00;1.40;;;;;;;29.54;33.00;97314.73;110424;1241;59680;-70
2023/10/29 10:52:05;;;;;;;2.30;1.10;;;;;;;28.54;31.64;97309.36;110364;1241;71468;-71
2023/10/29 10:54:36;;;;;;;4.00;1.50;;;;;;;27.72;33.25;97310.39;110426;1241;69226;-70
2023/10/29 10:57:07;;;;;;;3.10;1.50;;;;;;;28.76;32.91;97303.61;110393;1239;69668;-71
2023/10/29 10:59:39;;;;;;;3.20;1.40;;;;;;;28.90;31.73;97311.42;110388;1241;59773;-72
2023/10/29 11:02:14;;;;;;;5.10;1.70;;;;;;;28.63;32.27;97308.34;110412;1241;59644;-71
2023/10/29 11:04:45;;;;;;;3.20;1.20;;;;;;;28.82;32.34;97305.86;110386;1242;71920;-71
2023/10/29 11:07:16;;;;;;;2.00;1.00;;;;;;;28.74;32.42;97305.50;110396;1242;69882;-70
2023/10/29 11:09:45;;;;;;;3.00;1.50;;;;;;;29.12;32.25;97301.37;110265;1243;69250;-71
2023/10/29 11:12:20;;;;;;;3.60;1.90;;;;;;;28.92;31.68;97302.23;110385;1239;59692;-70
2023/10/29 11:15:19;;;;;;;4.40;1.70;;;;;;;29.00;32.77;97295.71;110363;1241;59763;-70
2023/10/29 11:18:00;;;;;;;2.70;1.40;;;;;;;29.48;31.51;97297.44;110280;1241;70752;-70
2023/10/29 11:20:45;;;;;;;1.80;0.90;;;;;;;29.63;31.41;97298.27;110360;1242;69185;-71
2023/10/29 11:23:23;;;;;;;2.30;1.10;;;;;;;29.88;30.83;97298.54;110346;1243;69290;-71
2023/10/29 11:26:18;;;;;;;3.10;1.30;;;;;;;30.22;31.23;97300.02;110374;1241;59690;-70
2023/10/29 11:28:53;;;;;;;2.50;1.00;;;;;;;30.27;30.21;97300.23;110411;1242;59728;-70
2023/10/29 11:31:26;;;;;;;2.40;1.10;;;;;;;30.29;30.17;97296.27;110413;1241;71395;-70
2023/10/29 11:33:58;;;;;;;2.60;1.10;;;;;;;30.28;30.04;97294.94;110290;1241;67746;-70
2023/10/29 11:36:41;;;;;;;1.70;0.90;;;;;;;30.13;29.77;97287.42;110377;1242;69854;-71
2023/10/29 11:39:17;;;;;;;3.70;1.10;;;;;;;30.69;29.72;97277.44;110449;1240;59748;-69
2023/10/29 11:41:51;;;;;;;3.90;1.30;;;;;;;31.08;28.84;97273.23;110333;1240;59809;-70
2023/10/29 11:44:25;;;;;;;3.10;1.60;;;;;;;31.08;28.81;97268.13;110377;1242;71341;-72
2023/10/29 11:47:03;;;;;;;4.40;1.60;;;;;;;30.58;28.78;97273.89;110352;1247;69253;-70
2023/10/29 11:49:42;;;;;;;1.90;1.20;;;;;;;29.79;29.23;97271.02;110367;1241;69194;-70